ADDS TAF Board (Experimental) INFO Settings

IDs: Format: Expanded Condensed

KMSP - Minneapolis-St Paul, MN, US

Issued at 1723 UTC 04 Mar 2015
Updated at: 1845 UTC 04 Mar 2015
Time1753Z 04/19Z 04/20Z 04/21Z 04/22Z 04/23Z 05/00Z 05/01Z 05/02Z 05/03Z 05/04Z 05/05Z 05/06Z 05/07Z
Type OBS PRVL PRVL PRVL PRVL PRVL PRVL PRVL PRVL PRVL PRVL PRVL PRVL PRVL
VIS 10 >6 >6 >6 >6 >6 >6 >6 >6 >6 >6 >6 >6 >6
CIG 38 -- -- -- -- -- -- -- -- -- -- -- -- --
Cover BKN SCT SCT SCT SCT SCT SCT FEW FEW FEW FEW FEW FEW FEW
FltCat VFR VFR VFR VFR VFR VFR VFR VFR VFR VFR VFR VFR VFR VFR
WX -- -- -- -- -- -- -- -- -- -- -- -- -- --
WDir 300 290 290 290 290 290 290 300 300 300 300 300 300 300
WSpd 12 12 12 12 12 12 12 9 9 9 9 9 9 9
WGst 23 18 18 18 18 18 18 -- -- -- -- -- -- --
R04/22
XWnd 12 11 11 11 11 11 11 9 9 9 9 9 9 9
XGst 22 16 16 16 16 16 16 -- -- -- -- -- -- --
HWnd -3 -5 -5 -5 -5 -5 -5 -2 -2 -2 -2 -2 -2 -2
HGst -6 -8 -8 -8 -8 -8 -8 -- -- -- -- -- -- --
R12/30
XWnd -0 -2 -2 -2 -2 -2 -2 -0 -0 -0 -0 -0 -0 -0
XGst -0 -3 -3 -3 -3 -3 -3 -- -- -- -- -- -- --
HWnd -12 -12 -12 -12 -12 -12 -12 -9 -9 -9 -9 -9 -9 -9
HGst -23 -18 -18 -18 -18 -18 -18 -- -- -- -- -- -- --
R17/35
XWnd -9 -10 -10 -10 -10 -10 -10 -7 -7 -7 -7 -7 -7 -7
XGst -18 -16 -16 -16 -16 -16 -16 -- -- -- -- -- -- --
HWnd -8 -6 -6 -6 -6 -6 -6 -6 -6 -6 -6 -6 -6 -6
HGst -15 -9 -9 -9 -9 -9 -9 -- -- -- -- -- -- --

NOTE: TEMPO conditions in [brackets]. Keep in mind TEMPO conditions might be better (lower impact) than prevailing conditions.

Raw TAF
KMSP 041723Z 0418/0524 29012G18KT P6SM SCT040
  FM050100 30009KT P6SM FEW030
  FM050800 28006KT P6SM SKC
  FM052000 21010KT P6SM SKC


Raw METAR
KMSP 041753Z 30012G23KT 10SM BKN038 M13/M21 A3025 RMK AO2 SLP264 4/002 T11331211 11128 21183 53008
KMSP 041653Z 27010KT 10SM FEW050 M13/M21 A3024 RMK AO2 SLP260 T11331211
KMSP 041553Z 28012KT 10SM BKN047 BKN055 M15/M22 A3023 RMK AO2 SLP256 T11501222

METAR Board
Radar Display
Forecast Discussion

TAF Board Legend

Potential Impact
Threat None Slight Moderate High
Visibility (sm) ≥5.1 5.1>X≥3 3>X≥1 <1
Ceiling (100 ft) ≥30.1 30.1>X≥10 10>X≥5 <5
Wind Speed (kt) <10 10≤X<20 20≤X<30 ≥30
Wind Gust (kt) <15 15≤X<25 25≤X<35 ≥35
Weather No Wx Reported VCTS,-TS,-FZRA,SN TS,FZRA +TS,+FZRA,+SN